Time;durP1;ratioP1;P1;durP2;ratioP2;P2;SDS_P1;SDS_P2;PMS_P1;PMS_P2;Temp;Humidity;BMP_temperature;BMP_pressure;BME280_temperature;BME280_humidity;BME280_pressure;Samples;Min_cycle;Max_cycle;Signal;HPM_P1;HPM_P2
2023/03/19 00:01:41;;;;;;;39.60;29.75;;;8.30;99.90;;;;;;5095625;28;20051;-64
2023/03/19 00:04:07;;;;;;;47.70;32.08;;;8.20;99.90;;;;;;5095660;28;20081;-64
2023/03/19 00:06:32;;;;;;;43.05;30.70;;;8.30;99.90;;;;;;5095444;28;20032;-64
2023/03/19 00:08:58;;;;;;;41.08;30.73;;;8.20;99.90;;;;;;5095423;28;20028;-64
2023/03/19 00:11:24;;;;;;;41.55;30.55;;;8.20;99.90;;;;;;5095500;28;20028;-64
2023/03/19 00:13:49;;;;;;;41.40;30.30;;;8.20;99.90;;;;;;5095436;28;20024;-64
2023/03/19 00:16:15;;;;;;;42.65;29.45;;;8.10;99.90;;;;;;5094944;28;20164;-64
2023/03/19 00:18:41;;;;;;;40.03;29.60;;;8.10;99.90;;;;;;5095447;28;20036;-64
2023/03/19 00:21:07;;;;;;;43.22;30.73;;;8.00;99.90;;;;;;5095482;28;20470;-64
2023/03/19 00:23:33;;;;;;;43.90;31.73;;;8.00;99.90;;;;;;5094850;28;20035;-64
2023/03/19 00:25:59;;;;;;;37.30;28.77;;;8.10;99.90;;;;;;5095205;28;20028;-64
2023/03/19 00:28:25;;;;;;;40.05;28.45;;;8.00;99.90;;;;;;5095225;28;20505;-65
2023/03/19 00:30:51;;;;;;;44.90;29.80;;;8.10;99.90;;;;;;5095218;28;20062;-64
2023/03/19 00:33:17;;;;;;;41.40;29.08;;;8.10;99.90;;;;;;5095100;28;20393;-64
2023/03/19 00:35:42;;;;;;;39.65;28.98;;;8.10;99.90;;;;;;5095154;28;20035;-64
2023/03/19 00:38:08;;;;;;;48.05;32.55;;;8.20;99.90;;;;;;5095110;28;20031;-64
2023/03/19 00:40:34;;;;;;;43.95;31.25;;;8.20;99.90;;;;;;5093508;28;20031;-64
2023/03/19 00:43:00;;;;;;;42.50;30.13;;;8.30;99.90;;;;;;5094769;28;20020;-64
2023/03/19 00:45:26;;;;;;;46.53;30.45;;;8.30;99.90;;;;;;5094911;28;20034;-64
2023/03/19 00:47:51;;;;;;;43.38;31.73;;;8.30;99.90;;;;;;5094877;28;20035;-64
2023/03/19 00:50:17;;;;;;;42.35;29.75;;;8.40;99.90;;;;;;5094380;28;20073;-64
2023/03/19 00:52:42;;;;;;;47.15;31.55;;;8.40;99.90;;;;;;5094798;28;20063;-64
2023/03/19 00:55:08;;;;;;;41.08;30.75;;;8.40;99.90;;;;;;5094803;28;20029;-64
2023/03/19 00:57:34;;;;;;;38.47;27.77;;;8.30;99.90;;;;;;5094430;28;20024;-64
2023/03/19 01:00:00;;;;;;;48.75;28.50;;;8.30;99.90;;;;;;5094747;28;20325;-64
2023/03/19 01:02:25;;;;;;;32.38;25.50;;;8.30;99.90;;;;;;5094616;28;20427;-64
2023/03/19 01:04:51;;;;;;;36.75;27.75;;;8.30;99.90;;;;;;5094199;28;20051;-64
2023/03/19 01:07:16;;;;;;;34.45;25.80;;;8.30;99.90;;;;;;5094399;28;20114;-64
2023/03/19 01:09:42;;;;;;;30.25;24.48;;;8.30;99.90;;;;;;5094412;28;20519;-65
2023/03/19 01:12:08;;;;;;;33.40;24.23;;;8.30;99.90;;;;;;5094119;28;20085;-64
2023/03/19 01:14:33;;;;;;;31.73;24.90;;;8.20;99.90;;;;;;5094277;28;20028;-65
2023/03/19 01:16:59;;;;;;;33.38;24.42;;;8.10;99.90;;;;;;5093971;28;20387;-64
2023/03/19 01:19:26;;;;;;;33.60;24.67;;;8.10;99.90;;;;;;5094324;28;20028;-64
2023/03/19 01:21:51;;;;;;;31.27;23.52;;;8.10;99.90;;;;;;5094220;28;20024;-64
2023/03/19 01:24:17;;;;;;;34.17;24.77;;;8.00;99.90;;;;;;5094073;28;20481;-64
2023/03/19 01:26:42;;;;;;;31.38;23.27;;;8.00;99.90;;;;;;5094167;28;20036;-64
2023/03/19 01:29:09;;;;;;;36.08;25.75;;;8.00;99.90;;;;;;5093997;28;20559;-64
2023/03/19 01:31:36;;;;;;;38.42;26.77;;;7.90;99.90;;;;;;5094029;28;20055;-64
2023/03/19 01:34:02;;;;;;;40.60;27.45;;;7.90;99.90;;;;;;5093676;28;20027;-64
2023/03/19 01:36:28;;;;;;;37.13;27.52;;;7.90;99.90;;;;;;5093726;28;20495;-64
2023/03/19 01:38:54;;;;;;;32.40;24.83;;;7.90;99.90;;;;;;5094265;28;20398;-64
2023/03/19 01:41:21;;;;;;;33.85;25.08;;;7.90;99.90;;;;;;5093930;28;20521;-64
2023/03/19 01:43:47;;;;;;;40.13;29.88;;;7.90;99.90;;;;;;5093849;28;20130;-64
2023/03/19 01:46:32;;;;;;;43.15;31.17;;;7.90;99.90;;;;;;5093753;28;20094;-64
2023/03/19 01:49:01;;;;;;;40.38;30.25;;;8.00;99.90;;;;;;5093833;28;20469;-64
2023/03/19 01:51:33;;;;;;;41.50;30.02;;;8.00;99.90;;;;;;5093498;28;20529;-64
2023/03/19 01:54:02;;;;;;;36.80;26.63;;;7.90;99.90;;;;;;5093366;28;20052;-64
2023/03/19 01:56:32;;;;;;;38.30;26.50;;;7.90;99.90;;;;;;5093557;28;20028;-64
2023/03/19 01:59:06;;;;;;;42.42;28.20;;;7.90;99.90;;;;;;5094012;28;20427;-65
2023/03/19 02:01:37;;;;;;;40.65;28.23;;;7.80;99.90;;;;;;5093631;28;20096;-64
2023/03/19 02:04:03;;;;;;;37.92;27.17;;;7.80;99.90;;;;;;5093431;28;20024;-64
2023/03/19 02:06:30;;;;;;;38.90;28.15;;;7.80;99.90;;;;;;5093406;28;20532;-64
2023/03/19 02:08:57;;;;;;;36.63;26.13;;;7.80;99.90;;;;;;5093090;28;20028;-64
2023/03/19 02:11:24;;;;;;;36.25;27.25;;;7.80;99.90;;;;;;5093659;28;20474;-64
2023/03/19 02:13:50;;;;;;;40.42;26.88;;;7.80;99.90;;;;;;5093362;28;20020;-64
2023/03/19 02:16:16;;;;;;;40.30;26.63;;;7.70;99.90;;;;;;5093075;28;20111;-64
2023/03/19 02:18:43;;;;;;;37.97;25.70;;;7.70;99.90;;;;;;5093393;28;20024;-64
2023/03/19 02:21:14;;;;;;;34.72;25.38;;;7.80;99.90;;;;;;5093312;28;20548;-64
2023/03/19 02:24:02;;;;;;;33.28;25.45;;;7.90;99.90;;;;;;5093562;28;20058;-64
2023/03/19 02:26:29;;;;;;;32.92;23.15;;;7.90;99.90;;;;;;5093143;28;20028;-64
2023/03/19 02:28:55;;;;;;;30.27;22.80;;;7.90;99.90;;;;;;5093150;28;20363;-64
2023/03/19 02:31:22;;;;;;;32.45;23.40;;;7.90;99.90;;;;;;5093079;28;20024;-64
2023/03/19 02:34:06;;;;;;;33.15;24.63;;;7.90;99.90;;;;;;5093291;28;20030;-64
2023/03/19 02:36:37;;;;;;;30.63;21.73;;;7.90;99.90;;;;;;5093029;28;20077;-64
2023/03/19 02:39:07;;;;;;;24.05;19.35;;;7.70;99.90;;;;;;5093052;28;20024;-64
2023/03/19 02:41:35;;;;;;;30.33;20.80;;;7.70;99.90;;;;;;5093216;28;20024;-64
2023/03/19 02:44:03;;;;;;;25.55;20.17;;;7.60;99.90;;;;;;5093099;28;20059;-64
2023/03/19 02:46:28;;;;;;;31.48;21.50;;;7.50;99.90;;;;;;5093178;28;20028;-65
2023/03/19 02:48:54;;;;;;;29.27;20.48;;;7.50;99.90;;;;;;5093146;28;20101;-64
2023/03/19 02:51:19;;;;;;;26.60;19.73;;;7.40;99.90;;;;;;5093172;28;20054;-64
2023/03/19 02:53:45;;;;;;;23.85;17.67;;;7.30;99.90;;;;;;5093189;28;20028;-64
2023/03/19 02:56:11;;;;;;;27.15;19.10;;;7.30;99.90;;;;;;5092795;28;20490;-64
2023/03/19 02:58:36;;;;;;;26.38;19.30;;;7.20;99.90;;;;;;5093119;28;20032;-65
2023/03/19 03:01:03;;;;;;;25.08;18.38;;;7.20;99.90;;;;;;5092937;28;20385;-64
2023/03/19 03:03:29;;;;;;;24.70;18.50;;;7.20;99.90;;;;;;5094695;28;20533;-64
2023/03/19 03:05:54;;;;;;;25.17;18.42;;;7.20;99.90;;;;;;5096697;28;20109;-64
2023/03/19 03:08:20;;;;;;;25.92;19.15;;;7.20;99.90;;;;;;5096653;28;20024;-64
2023/03/19 03:10:45;;;;;;;27.80;18.23;;;7.20;99.90;;;;;;5096145;28;20035;-64
2023/03/19 03:13:11;;;;;;;28.67;19.10;;;7.10;99.90;;;;;;5096552;28;20016;-64
2023/03/19 03:15:36;;;;;;;25.98;18.42;;;7.10;99.90;;;;;;5096522;28;20024;-64
2023/03/19 03:18:02;;;;;;;31.85;20.70;;;7.00;99.90;;;;;;5096297;28;20075;-64
2023/03/19 03:20:28;;;;;;;29.27;19.95;;;7.00;99.90;;;;;;5096568;28;20035;-64
2023/03/19 03:22:54;;;;;;;25.17;17.23;;;7.00;99.90;;;;;;5096147;28;20047;-64
2023/03/19 03:25:20;;;;;;;28.55;19.75;;;7.00;99.90;;;;;;5096376;28;20020;-64
2023/03/19 03:27:45;;;;;;;26.55;20.67;;;7.00;99.90;;;;;;5096514;28;20032;-64
2023/03/19 03:30:12;;;;;;;31.30;19.13;;;6.90;99.90;;;;;;5096161;28;20074;-64
2023/03/19 03:32:38;;;;;;;24.50;18.70;;;6.80;99.90;;;;;;5096487;28;20485;-64
2023/03/19 03:35:05;;;;;;;28.02;18.60;;;6.80;99.90;;;;;;5096362;28;20538;-64
2023/03/19 03:37:31;;;;;;;26.35;17.33;;;6.80;99.90;;;;;;5095985;28;20104;-65
2023/03/19 03:39:57;;;;;;;22.65;17.42;;;6.80;99.90;;;;;;5096295;28;20390;-64
2023/03/19 03:42:22;;;;;;;30.23;19.85;;;6.90;99.90;;;;;;5096200;28;20488;-64
2023/03/19 03:44:48;;;;;;;24.33;17.67;;;6.80;99.90;;;;;;5096236;28;20028;-64
2023/03/19 03:47:13;;;;;;;30.55;19.00;;;6.80;99.90;;;;;;5095961;28;20370;-64
2023/03/19 03:49:40;;;;;;;24.17;17.45;;;6.80;99.90;;;;;;5096132;28;20490;-64
2023/03/19 03:52:07;;;;;;;21.63;16.38;;;6.90;99.90;;;;;;5095629;28;20028;-64
2023/03/19 03:54:32;;;;;;;23.83;17.25;;;6.80;99.90;;;;;;5095582;28;20500;-64
2023/03/19 03:56:58;;;;;;;22.20;16.23;;;6.80;99.90;;;;;;5095769;28;20024;-64
2023/03/19 03:59:24;;;;;;;26.08;16.83;;;6.70;99.90;;;;;;5095621;28;20077;-64
2023/03/19 04:01:49;;;;;;;22.30;16.02;;;6.70;99.90;;;;;;5095930;28;20027;-64
2023/03/19 04:04:15;;;;;;;23.13;15.38;;;6.70;99.90;;;;;;5095672;28;20024;-64
2023/03/19 04:06:41;;;;;;;22.17;15.95;;;6.80;99.90;;;;;;5095865;28;20024;-64
2023/03/19 04:09:06;;;;;;;20.30;15.20;;;6.80;99.90;;;;;;5095701;28;20032;-64
2023/03/19 04:11:33;;;;;;;22.77;14.88;;;6.90;99.90;;;;;;5095374;28;20071;-64
2023/03/19 04:13:58;;;;;;;19.52;14.32;;;6.90;99.90;;;;;;5095405;28;20039;-64
2023/03/19 04:16:24;;;;;;;20.88;13.82;;;6.90;99.90;;;;;;5095218;28;20048;-65
2023/03/19 04:18:50;;;;;;;17.48;12.95;;;6.90;99.90;;;;;;5095472;28;20024;-64
2023/03/19 04:21:15;;;;;;;16.05;12.70;;;7.00;99.90;;;;;;5095415;28;20024;-64
2023/03/19 04:23:41;;;;;;;22.90;13.93;;;7.00;99.90;;;;;;5095608;28;20063;-64
2023/03/19 04:26:07;;;;;;;18.77;12.90;;;7.00;99.90;;;;;;5095165;28;20024;-64
2023/03/19 04:28:33;;;;;;;17.15;13.18;;;7.10;99.90;;;;;;5095300;28;20043;-64
2023/03/19 04:31:04;;;;;;;18.27;13.18;;;7.10;99.90;;;;;;5095102;28;20089;-64
2023/03/19 04:33:30;;;;;;;18.80;12.13;;;7.10;99.90;;;;;;5094736;28;20419;-63
2023/03/19 04:35:56;;;;;;;17.15;12.35;;;7.10;99.90;;;;;;5094861;28;20478;-63
2023/03/19 04:38:22;;;;;;;19.73;13.07;;;7.20;99.90;;;;;;5095236;28;20117;-64
2023/03/19 04:40:48;;;;;;;17.38;13.13;;;7.30;99.90;;;;;;5095113;28;20099;-64
2023/03/19 04:43:14;;;;;;;15.73;12.35;;;7.30;99.90;;;;;;5094673;28;20024;-63
2023/03/19 04:45:40;;;;;;;19.33;12.88;;;7.30;99.90;;;;;;5094702;28;20111;-63
2023/03/19 04:48:06;;;;;;;17.27;12.63;;;7.30;99.90;;;;;;5094879;28;20491;-64
2023/03/19 04:50:32;;;;;;;16.38;11.77;;;7.30;99.90;;;;;;5094864;28;20032;-63
2023/03/19 04:52:57;;;;;;;16.77;11.35;;;7.30;99.90;;;;;;5094923;28;20039;-64
2023/03/19 04:55:23;;;;;;;15.05;11.35;;;7.30;99.90;;;;;;5094754;28;20035;-64
2023/03/19 04:57:49;;;;;;;15.60;12.00;;;7.30;99.90;;;;;;5094456;28;20401;-64
2023/03/19 05:00:16;;;;;;;15.18;11.55;;;7.30;99.90;;;;;;5094349;28;20088;-64
2023/03/19 05:02:42;;;;;;;18.27;11.73;;;7.30;99.90;;;;;;5094767;28;20078;-64
2023/03/19 05:05:09;;;;;;;14.75;11.95;;;7.30;99.90;;;;;;5094577;28;20028;-63
2023/03/19 05:07:35;;;;;;;17.25;11.88;;;7.40;99.90;;;;;;5094352;28;20032;-64
2023/03/19 05:10:01;;;;;;;16.40;12.15;;;7.30;99.90;;;;;;5094583;28;20035;-63
2023/03/19 05:12:27;;;;;;;18.17;12.70;;;7.30;99.90;;;;;;5094522;28;20092;-63
2023/03/19 05:14:53;;;;;;;18.25;12.63;;;7.30;99.90;;;;;;5094447;28;20031;-63
2023/03/19 05:17:18;;;;;;;16.25;12.48;;;7.40;99.90;;;;;;5093848;28;20145;-63
2023/03/19 05:19:44;;;;;;;18.02;11.63;;;7.40;99.90;;;;;;5094001;28;20035;-63
2023/03/19 05:22:09;;;;;;;15.05;11.00;;;7.40;99.90;;;;;;5093931;28;20482;-63
2023/03/19 05:24:35;;;;;;;14.02;11.38;;;7.40;99.90;;;;;;5094195;28;20031;-63
2023/03/19 05:27:01;;;;;;;15.15;11.18;;;7.50;99.90;;;;;;5093704;28;20115;-64
2023/03/19 05:29:26;;;;;;;14.68;10.55;;;7.40;99.90;;;;;;5094155;28;20034;-63
2023/03/19 05:31:52;;;;;;;13.85;10.65;;;7.50;99.90;;;;;;5094100;28;20086;-64
2023/03/19 05:34:18;;;;;;;12.13;10.48;;;7.50;99.90;;;;;;5094130;28;20457;-64
2023/03/19 05:36:43;;;;;;;14.45;10.52;;;7.50;99.90;;;;;;5093608;28;20085;-63
2023/03/19 05:39:09;;;;;;;14.93;11.23;;;7.50;99.90;;;;;;5093600;28;20024;-63
2023/03/19 05:41:34;;;;;;;18.58;14.20;;;7.50;99.90;;;;;;5094066;28;20058;-63
2023/03/19 05:44:00;;;;;;;18.00;12.43;;;7.50;99.90;;;;;;5093473;28;20024;-64
2023/03/19 05:46:26;;;;;;;17.48;12.30;;;7.50;99.90;;;;;;5093943;28;20032;-63
2023/03/19 05:48:51;;;;;;;15.95;11.77;;;7.50;99.90;;;;;;5093869;28;20027;-64
2023/03/19 05:51:17;;;;;;;19.85;13.57;;;7.50;99.90;;;;;;5093804;28;20036;-64
2023/03/19 05:53:43;;;;;;;22.75;14.38;;;7.50;99.90;;;;;;5093723;28;20047;-63
2023/03/19 05:56:08;;;;;;;18.13;12.18;;;7.60;99.90;;;;;;5093576;28;20039;-63
2023/03/19 05:58:35;;;;;;;17.52;12.80;;;7.60;99.90;;;;;;5093661;28;20051;-63
2023/03/19 06:01:00;;;;;;;16.25;12.70;;;7.60;99.90;;;;;;5093745;28;20533;-63
2023/03/19 06:03:26;;;;;;;16.98;12.15;;;7.60;99.90;;;;;;5093661;28;20119;-64
2023/03/19 06:05:52;;;;;;;14.80;10.98;;;7.60;99.90;;;;;;5093210;28;20024;-64
2023/03/19 06:08:17;;;;;;;22.25;15.27;;;7.70;99.90;;;;;;5093660;28;20020;-64
2023/03/19 06:10:43;;;;;;;21.20;14.38;;;7.80;99.90;;;;;;5093318;28;20385;-64
2023/03/19 06:13:09;;;;;;;17.83;12.77;;;7.80;99.90;;;;;;5093305;28;20082;-64
2023/03/19 06:15:35;;;;;;;16.95;12.30;;;7.90;99.90;;;;;;5093128;28;20027;-65
2023/03/19 06:18:01;;;;;;;19.80;12.70;;;7.90;99.90;;;;;;5093118;28;20028;-65
2023/03/19 06:20:26;;;;;;;17.92;13.30;;;7.90;99.90;;;;;;5093247;28;20047;-65
2023/03/19 06:22:52;;;;;;;18.65;13.80;;;7.90;99.90;;;;;;5093420;28;20512;-65
2023/03/19 06:25:18;;;;;;;20.90;14.85;;;7.90;99.90;;;;;;5093454;28;20024;-65
2023/03/19 06:27:43;;;;;;;23.13;15.80;;;8.00;99.90;;;;;;5093285;28;20030;-65
2023/03/19 06:30:09;;;;;;;15.15;12.63;;;8.00;99.90;;;;;;5093063;28;20040;-65
2023/03/19 06:32:35;;;;;;;18.65;13.50;;;8.10;99.90;;;;;;5093362;28;20480;-65
2023/03/19 06:35:01;;;;;;;17.05;13.45;;;8.10;99.90;;;;;;5093113;28;20020;-65
2023/03/19 06:37:27;;;;;;;20.63;15.43;;;8.10;99.90;;;;;;5092830;28;20440;-66
2023/03/19 06:39:54;;;;;;;20.55;13.68;;;8.10;99.90;;;;;;5097289;28;20027;-65
2023/03/19 06:42:20;;;;;;;21.38;14.85;;;8.20;99.90;;;;;;5097506;28;20074;-65
2023/03/19 06:44:46;;;;;;;18.48;14.30;;;8.40;99.90;;;;;;5097455;28;20024;-66
2023/03/19 06:47:13;;;;;;;23.52;16.90;;;8.40;99.90;;;;;;5097183;28;20545;-65
2023/03/19 06:49:39;;;;;;;24.73;17.65;;;8.60;99.90;;;;;;5097198;28;20466;-65
2023/03/19 06:52:05;;;;;;;19.85;15.20;;;;;;;;;;5097155;28;20032;-65
2023/03/19 06:54:30;;;;;;;14.35;10.65;;;12.40;99.90;;;;;;5097215;28;20032;-65
2023/03/19 06:56:56;;;;;;;12.20;8.13;;;12.60;99.90;;;;;;5096664;28;20024;-66
2023/03/19 06:59:21;;;;;;;8.63;7.72;;;13.70;4.60;;;;;;5097020;28;20035;-64
2023/03/19 07:01:47;;;;;;;8.82;6.90;;;14.90;1.00;;;;;;5096863;28;20016;-64
2023/03/19 07:04:12;;;;;;;8.82;6.55;;;16.30;99.90;;;;;;5096638;28;20123;-64
2023/03/19 07:06:38;;;;;;;7.05;5.45;;;17.20;99.90;;;;;;5096881;28;20030;-64
2023/03/19 07:09:04;;;;;;;8.10;5.75;;;;;;;;;;5096824;28;20081;-64
2023/03/19 07:11:30;;;;;;;7.70;5.63;;;18.30;1.00;;;;;;5096499;28;20070;-64
2023/03/19 07:13:55;;;;;;;11.73;5.85;;;17.50;99.90;;;;;;5096497;28;20024;-64
2023/03/19 07:16:21;;;;;;;8.95;5.50;;;15.90;1.00;;;;;;5096190;28;20047;-63
2023/03/19 07:18:47;;;;;;;6.70;5.97;;;;;;;;;;5096693;28;20032;-64
2023/03/19 07:21:13;;;;;;;8.65;5.85;;;14.50;1.00;;;;;;5096739;28;20074;-63
2023/03/19 07:23:39;;;;;;;8.30;6.72;;;13.90;1.00;;;;;;5096602;28;20494;-64
2023/03/19 07:26:04;;;;;;;8.77;5.80;;;14.00;99.90;;;;;;5096544;28;20017;-76
2023/03/19 07:28:30;;;;;;;7.35;4.63;;;14.50;99.90;;;;;;5096411;28;20016;-64
2023/03/19 07:30:56;;;;;;;6.82;3.60;;;14.30;99.90;;;;;;5096201;28;20028;-64
2023/03/19 07:33:22;;;;;;;6.45;3.80;;;;;;;;;;5096034;28;20103;-64
2023/03/19 07:35:47;;;;;;;6.03;3.88;;;13.80;1.00;;;;;;5096356;28;20063;-64
2023/03/19 07:38:13;;;;;;;5.43;3.53;;;13.80;1.00;;;;;;5096023;28;20024;-63
2023/03/19 07:40:39;;;;;;;6.63;3.42;;;13.50;99.90;;;;;;5096228;28;20030;-63
2023/03/19 07:43:05;;;;;;;9.10;4.03;;;13.70;99.90;;;;;;5095991;28;20392;-64
2023/03/19 07:45:31;;;;;;;5.35;3.25;;;13.80;66.30;;;;;;5096162;28;20103;-64
2023/03/19 07:47:56;;;;;;;6.82;3.22;;;13.90;86.60;;;;;;5095596;28;20031;-64
2023/03/19 07:50:22;;;;;;;5.65;3.88;;;14.10;99.90;;;;;;5095596;28;20040;-64
2023/03/19 07:52:50;;;;;;;6.05;4.13;;;14.00;17.90;;;;;;5096159;28;20035;-64
2023/03/19 07:55:16;;;;;;;7.53;4.07;;;14.20;99.90;;;;;;5096050;28;20039;-64
2023/03/19 07:57:41;;;;;;;8.32;4.38;;;14.10;99.90;;;;;;5095653;28;20024;-64
2023/03/19 08:00:09;;;;;;;6.07;4.45;;;13.70;99.90;;;;;;5095786;28;20494;-64
2023/03/19 08:02:35;;;;;;;7.28;4.50;;;13.60;99.90;;;;;;5095514;28;20056;-64
2023/03/19 08:05:03;;;;;;;8.70;4.03;;;13.40;99.90;;;;;;5095782;28;20031;-64
2023/03/19 08:07:29;;;;;;;6.45;4.03;;;13.20;99.90;;;;;;5095559;28;20039;-64
2023/03/19 08:09:57;;;;;;;7.60;3.70;;;13.20;99.90;;;;;;5095538;28;20020;-77
2023/03/19 08:12:23;;;;;;;4.40;3.38;;;13.40;99.90;;;;;;5095284;28;20691;-64
2023/03/19 08:14:49;;;;;;;5.38;3.35;;;13.70;99.90;;;;;;5095464;28;20032;-64
2023/03/19 08:17:15;;;;;;;5.32;2.63;;;14.50;1.00;;;;;;5095071;28;20097;-64
2023/03/19 08:19:40;;;;;;;4.72;2.80;;;15.00;99.90;;;;;;5095120;28;20051;-64
2023/03/19 08:22:06;;;;;;;4.82;2.88;;;14.70;99.90;;;;;;5095401;28;20024;-64
2023/03/19 08:24:32;;;;;;;4.22;2.88;;;14.90;1.30;;;;;;5095149;28;20508;-65
2023/03/19 08:26:57;;;;;;;6.97;3.53;;;15.20;50.20;;;;;;5095281;28;20032;-64
2023/03/19 08:29:25;;;;;;;4.25;3.58;;;15.40;1.00;;;;;;5074872;28;20032;-64
2023/03/19 08:31:50;;;;;;;5.35;3.70;;;15.70;99.90;;;;;;5075043;28;20036;-64
2023/03/19 08:34:16;;;;;;;6.43;4.40;;;16.10;1.00;;;;;;5075068;28;20036;-64
2023/03/19 08:36:41;;;;;;;5.10;4.20;;;16.30;1.00;;;;;;5074903;28;20064;-64
2023/03/19 08:39:07;;;;;;;9.10;5.32;;;15.50;1.00;;;;;;5074811;28;20025;-64
2023/03/19 08:41:33;;;;;;;8.88;4.85;;;15.00;99.90;;;;;;5074830;28;20024;-64
2023/03/19 08:43:58;;;;;;;7.00;5.18;;;14.60;99.90;;;;;;5074623;28;20024;-64
2023/03/19 08:46:26;;;;;;;6.93;5.03;;;14.20;99.90;;;;;;5074745;28;20044;-64
2023/03/19 08:48:52;;;;;;;11.68;5.55;;;14.10;1.00;;;;;;5074554;28;20027;-64
2023/03/19 08:51:17;;;;;;;10.65;5.40;;;14.30;1.00;;;;;;5074629;28;20032;-66
2023/03/19 08:53:43;;;;;;;7.60;5.40;;;15.40;1.00;;;;;;5074566;28;20039;-64
2023/03/19 08:56:09;;;;;;;6.25;4.55;;;16.10;99.90;;;;;;5074278;28;20127;-64
2023/03/19 08:58:34;;;;;;;6.65;5.22;;;16.90;1.00;;;;;;5074453;28;20029;-65
2023/03/19 09:01:02;;;;;;;5.43;4.30;;;17.60;26.20;;;;;;5073584;28;20470;-65
2023/03/19 09:03:28;;;;;;;5.47;4.35;;;17.70;99.90;;;;;;5074365;28;20017;-64
2023/03/19 09:05:58;;;;;;;6.18;5.05;;;16.70;1.00;;;;;;5074225;28;20024;-64
2023/03/19 09:08:23;;;;;;;7.00;4.57;;;15.90;99.90;;;;;;5074256;28;20093;-64
2023/03/19 09:10:49;;;;;;;8.25;5.10;;;15.50;99.90;;;;;;5074291;28;20036;-64
2023/03/19 09:13:14;;;;;;;7.72;5.75;;;15.00;1.00;;;;;;5074159;28;20057;-64
2023/03/19 09:15:40;;;;;;;8.48;6.15;;;15.20;99.90;;;;;;5073545;28;20032;-64
2023/03/19 09:18:05;;;;;;;8.18;5.95;;;15.40;99.90;;;;;;5073855;28;20071;-64
2023/03/19 09:20:31;;;;;;;7.03;6.07;;;15.90;99.90;;;;;;5073929;28;20390;-64
2023/03/19 09:22:56;;;;;;;6.95;5.43;;;16.60;99.90;;;;;;5073694;28;20055;-64
2023/03/19 09:25:22;;;;;;;7.15;5.13;;;16.70;99.90;;;;;;5073963;28;20040;-64
2023/03/19 09:27:47;;;;;;;6.28;5.00;;;16.90;99.90;;;;;;5073962;28;20028;-64
2023/03/19 09:30:14;;;;;;;6.13;4.97;;;17.50;99.90;;;;;;5073798;28;20035;-64
2023/03/19 09:32:39;;;;;;;8.88;5.35;;;17.90;29.00;;;;;;5073744;28;20070;-64
2023/03/19 09:35:06;;;;;;;5.82;4.93;;;18.30;99.90;;;;;;5074087;28;20424;-64
2023/03/19 09:37:32;;;;;;;6.30;5.40;;;18.80;99.90;;;;;;5073520;28;20085;-64
2023/03/19 09:39:57;;;;;;;7.13;5.32;;;18.50;39.40;;;;;;5073765;28;20037;-64
2023/03/19 09:42:46;;;;;;;7.43;5.40;;;18.90;1.00;;;;;;5073776;28;20029;-64
2023/03/19 09:45:15;;;;;;;8.32;5.78;;;19.00;99.90;;;;;;5073482;28;20363;-64
2023/03/19 09:47:42;;;;;;;6.90;6.10;;;19.10;99.90;;;;;;5073640;28;20085;-64
2023/03/19 09:50:14;;;;;;;6.50;5.88;;;18.90;99.90;;;;;;5073285;28;20040;-64
2023/03/19 09:53:11;;;;;;;6.80;6.05;;;18.90;99.90;;;;;;5073479;28;20505;-64
2023/03/19 09:55:53;;;;;;;10.40;5.72;;;19.30;99.90;;;;;;5073263;28;20074;-64
2023/03/19 09:58:21;;;;;;;7.40;5.68;;;18.60;99.90;;;;;;5073038;28;20025;-64
2023/03/19 10:00:50;;;;;;;7.10;6.32;;;17.60;99.90;;;;;;5073337;28;20021;-64
2023/03/19 10:06:22;;;;;;;9.43;7.45;;;16.80;1.00;;;;;;5090838;28;20433;-64
2023/03/19 10:09:20;;;;;;;9.50;6.68;;;16.40;99.90;;;;;;5090695;28;20375;-64
2023/03/19 10:12:26;;;;;;;7.20;6.00;;;17.50;99.90;;;;;;5091030;28;20118;-64
2023/03/19 10:15:20;;;;;;;8.30;6.85;;;18.30;1.00;;;;;;5090499;28;20026;-65
2023/03/19 10:17:54;;;;;;;9.10;7.00;;;17.30;99.90;;;;;;5090934;28;20020;-64
2023/03/19 10:20:47;;;;;;;8.85;6.70;;;16.90;99.90;;;;;;5090817;28;20052;-65
2023/03/19 10:26:03;;;;;;;8.35;7.15;;;16.10;1.00;;;;;;5090732;28;20790;-64
2023/03/19 10:28:29;;;;;;;7.78;6.80;;;15.80;1.00;;;;;;5090925;28;20482;-64
2023/03/19 10:31:34;;;;;;;8.75;6.35;;;15.40;99.90;;;;;;5090843;28;20115;-64
2023/03/19 10:34:13;;;;;;;9.63;6.55;;;15.30;1.00;;;;;;5090556;28;20083;-64
2023/03/19 10:36:39;;;;;;;8.73;7.15;;;15.90;99.90;;;;;;5090655;28;20393;-64
2023/03/19 10:39:06;;;;;;;10.32;7.03;;;15.90;99.90;;;;;;5090403;28;20099;-64
2023/03/19 10:41:48;;;;;;;9.93;7.38;;;15.70;99.90;;;;;;5090367;28;20035;-65
2023/03/19 10:44:26;;;;;;;8.85;7.63;;;15.80;1.00;;;;;;5090215;28;20379;-64
2023/03/19 10:46:51;;;;;;;9.52;7.35;;;15.70;46.80;;;;;;5090374;28;20024;-65
2023/03/19 10:49:17;;;;;;;11.55;8.13;;;15.80;1.00;;;;;;5090582;28;20367;-65
2023/03/19 10:51:45;;;;;;;10.25;8.77;;;15.90;1.00;;;;;;5090223;28;20029;-64
2023/03/19 10:54:29;;;;;;;9.68;8.57;;;16.30;99.90;;;;;;5090419;28;20070;-64
2023/03/19 10:56:57;;;;;;;9.30;8.32;;;16.50;99.90;;;;;;5090331;28;20424;-64
2023/03/19 10:59:30;;;;;;;8.32;7.50;;;16.40;1.00;;;;;;5090342;28;20066;-64
2023/03/19 11:01:58;;;;;;;8.80;7.32;;;17.40;3.00;;;;;;5090296;28;20028;-65
2023/03/19 11:04:26;;;;;;;6.63;6.03;;;18.40;99.90;;;;;;5090099;28;20033;-65
2023/03/19 11:06:55;;;;;;;7.85;6.85;;;18.10;99.90;;;;;;5090243;28;20549;-65
2023/03/19 11:09:31;;;;;;;8.07;6.78;;;18.10;1.00;;;;;;5090191;28;20075;-65
2023/03/19 11:12:04;;;;;;;7.07;6.25;;;18.00;1.00;;;;;;5090120;28;20390;-64
2023/03/19 11:14:37;;;;;;;5.57;5.03;;;17.90;99.90;;;;;;5090122;28;20028;-64
2023/03/19 11:17:15;;;;;;;6.88;5.60;;;18.20;1.00;;;;;;5089746;28;20512;-64
2023/03/19 11:19:47;;;;;;;7.30;6.28;;;18.40;99.90;;;;;;5090128;28;20108;-64
2023/03/19 11:22:19;;;;;;;5.47;4.97;;;18.30;99.90;;;;;;5089945;28;20402;-64
2023/03/19 11:24:56;;;;;;;7.07;5.53;;;17.90;1.00;;;;;;5089417;28;20048;-64
2023/03/19 11:27:36;;;;;;;6.75;5.13;;;17.70;99.90;;;;;;5089724;28;20493;-64
2023/03/19 11:30:11;;;;;;;5.93;4.43;;;17.60;12.10;;;;;;5089619;28;20034;-64
2023/03/19 11:33:14;;;;;;;6.10;4.75;;;17.40;53.80;;;;;;5089497;28;20025;-65
2023/03/19 11:36:04;;;;;;;4.38;3.92;;;17.60;1.00;;;;;;5085651;28;20035;-64
2023/03/19 11:38:42;;;;;;;6.00;4.15;;;17.10;1.00;;;;;;5076044;28;20028;-64
2023/03/19 11:41:35;;;;;;;7.07;4.57;;;16.80;99.90;;;;;;5076015;28;20071;-64
2023/03/19 11:44:31;;;;;;;5.10;3.92;;;16.60;99.90;;;;;;5075942;28;20494;-64
2023/03/19 11:47:31;;;;;;;4.80;3.88;;;16.60;99.90;;;;;;5075138;28;20059;-65
2023/03/19 11:50:23;;;;;;;3.88;3.47;;;16.70;1.00;;;;;;5075536;28;20028;-65
2023/03/19 11:56:36;;;;;;;4.65;3.83;;;17.10;99.90;;;;;;5111080;27;20537;-64
2023/03/19 11:59:31;;;;;;;4.93;3.70;;;17.70;99.90;;;;;;5111084;28;20436;-64
2023/03/19 12:02:32;;;;;;;5.40;3.83;;;17.70;97.30;;;;;;5110893;28;20028;-64
2023/03/19 12:05:16;;;;;;;6.03;3.85;;;17.80;1.00;;;;;;5110933;28;20481;-64
2023/03/19 12:07:55;;;;;;;4.18;3.22;;;17.50;1.00;;;;;;5111068;28;20505;-64
2023/03/19 12:10:53;;;;;;;4.38;3.80;;;17.20;99.90;;;;;;5111098;28;20122;-64
2023/03/19 12:13:46;;;;;;;4.20;3.80;;;17.20;42.80;;;;;;5110945;28;20481;-64
2023/03/19 12:16:23;;;;;;;5.00;4.05;;;17.50;99.90;;;;;;5110906;28;20443;-64
2023/03/19 12:19:17;;;;;;;4.00;3.60;;;18.20;49.50;;;;;;5111011;28;20039;-64
2023/03/19 12:25:15;;;;;;;4.15;3.75;;;18.40;1.00;;;;;;5111159;27;20408;-64
2023/03/19 12:28:18;;;;;;;4.65;3.63;;;18.40;99.90;;;;;;5111057;28;20054;-65
2023/03/19 12:30:55;;;;;;;5.38;4.22;;;18.30;99.90;;;;;;5111139;28;20024;-64
2023/03/19 12:33:42;;;;;;;4.80;3.95;;;17.90;99.90;;;;;;5111297;28;20036;-64
2023/03/19 12:36:14;;;;;;;5.00;3.70;;;17.30;29.20;;;;;;5111161;28;20035;-64
2023/03/19 12:38:53;;;;;;;4.60;4.07;;;17.30;99.90;;;;;;5110962;28;20481;-64
2023/03/19 12:41:23;;;;;;;5.20;4.00;;;17.10;99.90;;;;;;5111032;28;20031;-64
2023/03/19 12:44:02;;;;;;;3.72;3.33;;;17.10;99.90;;;;;;5110775;28;20054;-64
2023/03/19 12:46:41;;;;;;;4.22;3.70;;;16.90;99.90;;;;;;5110987;28;20052;-65
2023/03/19 12:49:15;;;;;;;5.50;3.95;;;16.70;1.00;;;;;;5110459;28;20030;-64
2023/03/19 12:51:44;;;;;;;;;;;16.40;99.90;;;;;;5111162;28;20031;-64
2023/03/19 12:54:28;;;;;;;5.38;3.90;;;16.30;99.90;;;;;;5110583;28;20281;-65
2023/03/19 12:57:18;;;;;;;5.10;4.30;;;16.20;1.00;;;;;;5110891;28;20024;-64
2023/03/19 13:00:00;;;;;;;4.50;4.10;;;16.10;1.00;;;;;;5110283;28;20024;-64
2023/03/19 13:05:28;;;;;;;5.10;4.57;;;16.20;1.00;;;;;;5111130;27;20377;-65
2023/03/19 13:10:35;;;;;;;5.85;5.30;;;16.20;99.90;;;;;;5111115;27;20380;-65
2023/03/19 13:13:21;;;;;;;6.03;5.43;;;16.00;99.90;;;;;;5111212;28;20042;-65